Time;durP1;ratioP1;P1;durP2;ratioP2;P2;SDS_P1;SDS_P2;PMS_P1;PMS_P2;Temp;Humidity;BMP_temperature;BMP_pressure;BME280_temperature;BME280_humidity;BME280_pressure;Samples;Min_cycle;Max_cycle;Signal;HPM_P1;HPM_P2
2023/10/11 00:00:57;;;;;;;12.73;4.75;;;17.70;99.90;;;;;;5075916;28;20468;-73
2023/10/11 00:03:52;;;;;;;12.18;4.80;;;17.70;99.90;;;;;;5111505;28;20041;-73
2023/10/11 00:06:38;;;;;;;15.32;4.85;;;17.70;99.90;;;;;;5088925;28;20110;-73
2023/10/11 00:09:35;;;;;;;8.88;5.00;;;17.60;99.90;;;;;;5087924;28;20096;-73
2023/10/11 00:12:22;;;;;;;12.93;5.43;;;17.60;99.90;;;;;;5077324;28;20039;-73
2023/10/11 00:15:09;;;;;;;11.52;4.68;;;17.60;99.90;;;;;;5088307;28;20459;-73
2023/10/11 00:17:56;;;;;;;12.40;4.88;;;17.60;99.90;;;;;;5077300;28;20204;-73
2023/10/11 00:23:28;;;;;;;12.13;4.97;;;17.60;99.90;;;;;;5094260;28;20041;-73
2023/10/11 00:26:19;;;;;;;9.35;4.93;;;17.50;99.90;;;;;;5067744;28;20035;-73
2023/10/11 00:29:05;;;;;;;11.50;5.20;;;17.50;99.90;;;;;;5073825;28;20108;-73
2023/10/11 00:31:51;;;;;;;13.30;4.90;;;17.50;99.90;;;;;;5064627;28;20051;-73
2023/10/11 00:34:38;;;;;;;16.92;5.05;;;17.50;99.90;;;;;;5081561;28;20062;-73
2023/10/11 00:37:25;;;;;;;13.35;5.35;;;17.40;99.90;;;;;;5075483;28;20101;-73
2023/10/11 00:40:14;;;;;;;14.23;5.60;;;17.50;99.90;;;;;;5078173;28;20048;-73
2023/10/11 00:43:00;;;;;;;18.25;5.10;;;17.50;99.90;;;;;;5082752;28;20039;-74
2023/10/11 00:45:48;;;;;;;8.90;4.60;;;17.50;99.90;;;;;;5088599;28;20313;-74
2023/10/11 00:48:43;;;;;;;12.98;5.15;;;17.50;99.90;;;;;;5060995;28;20043;-73
2023/10/11 00:51:30;;;;;;;11.63;4.60;;;17.50;99.90;;;;;;5079990;28;20112;-74
2023/10/11 00:54:16;;;;;;;8.32;5.00;;;17.50;99.90;;;;;;5078322;28;20035;-74
2023/10/11 00:57:02;;;;;;;13.45;5.18;;;17.50;99.90;;;;;;5082357;28;20480;-74
2023/10/11 00:59:50;;;;;;;10.48;4.97;;;17.50;99.90;;;;;;5065940;28;20072;-74
2023/10/11 01:02:35;;;;;;;9.45;4.78;;;17.50;99.90;;;;;;5072910;28;20111;-74
2023/10/11 01:05:22;;;;;;;11.98;5.35;;;17.50;99.90;;;;;;5092079;28;20527;-74
2023/10/11 01:08:09;;;;;;;9.98;5.45;;;17.50;99.90;;;;;;5059669;28;20047;-74
2023/10/11 01:10:54;;;;;;;11.60;4.88;;;17.50;99.90;;;;;;5093388;28;20044;-74
2023/10/11 01:13:42;;;;;;;11.90;5.70;;;17.50;99.90;;;;;;5084302;28;20048;-74
2023/10/11 01:16:28;;;;;;;10.75;5.13;;;17.50;99.90;;;;;;5094053;28;20134;-74
2023/10/11 01:19:16;;;;;;;11.05;5.22;;;17.50;99.90;;;;;;5076049;28;20055;-75
2023/10/11 01:22:03;;;;;;;14.73;5.80;;;17.50;99.90;;;;;;5061178;28;20067;-76
2023/10/11 01:24:50;;;;;;;14.38;5.22;;;17.60;99.90;;;;;;5073198;28;20100;-76
2023/10/11 01:27:37;;;;;;;14.33;5.73;;;17.50;99.90;;;;;;5075690;28;20408;-76
2023/10/11 01:30:26;;;;;;;12.20;5.25;;;17.60;99.90;;;;;;5092371;28;20039;-76
2023/10/11 01:33:16;;;;;;;15.52;5.63;;;17.60;99.90;;;;;;5083043;28;20440;-76
2023/10/11 01:36:23;;;;;;;11.77;4.97;;;17.60;99.90;;;;;;5073760;28;20035;-74
2023/10/11 01:39:11;;;;;;;16.58;5.32;;;17.60;99.90;;;;;;5083150;28;20188;-73
2023/10/11 01:41:58;;;;;;;15.18;5.70;;;17.60;99.90;;;;;;5083720;28;20047;-73
2023/10/11 01:44:44;;;;;;;21.08;5.90;;;17.60;99.90;;;;;;5070322;28;20050;-72
2023/10/11 01:47:33;;;;;;;14.73;5.55;;;17.70;99.90;;;;;;5045702;28;20485;-73
2023/10/11 01:50:19;;;;;;;14.73;5.15;;;17.60;99.90;;;;;;5044043;28;20048;-72
2023/10/11 01:53:08;;;;;;;13.55;5.43;;;17.70;99.90;;;;;;5040999;28;20131;-73
2023/10/11 01:55:55;;;;;;;12.15;4.85;;;17.70;99.90;;;;;;5065506;28;20542;-73
2023/10/11 01:58:42;;;;;;;10.25;5.28;;;17.70;99.90;;;;;;5050207;28;20059;-73
2023/10/11 02:01:30;;;;;;;15.57;4.93;;;17.70;99.90;;;;;;5047708;28;20139;-73
2023/10/11 02:04:20;;;;;;;8.68;4.65;;;17.70;99.90;;;;;;5051762;28;20338;-73
2023/10/11 02:07:07;;;;;;;10.20;4.68;;;17.70;99.90;;;;;;5032084;28;20567;-73
2023/10/11 02:09:53;;;;;;;9.77;4.47;;;17.70;99.90;;;;;;5060875;28;20063;-73
2023/10/11 02:12:44;;;;;;;11.93;4.93;;;17.70;99.90;;;;;;5053631;28;20033;-73
2023/10/11 02:15:30;;;;;;;10.07;4.80;;;17.70;99.90;;;;;;5049542;28;20037;-75
2023/10/11 02:18:16;;;;;;;10.82;4.72;;;17.70;99.90;;;;;;5071837;28;20032;-76
2023/10/11 02:21:08;;;;;;;8.75;3.97;;;17.70;99.90;;;;;;5057577;28;20041;-76
2023/10/11 02:23:56;;;;;;;9.95;4.53;;;17.70;99.90;;;;;;5061957;28;20125;-76
2023/10/11 02:26:49;;;;;;;10.45;4.47;;;17.70;99.90;;;;;;5057260;28;20119;-77
2023/10/11 02:29:35;;;;;;;10.38;4.10;;;17.70;99.90;;;;;;5053055;28;20417;-75
2023/10/11 02:32:21;;;;;;;11.00;4.88;;;17.60;99.90;;;;;;5054042;28;20055;-76
2023/10/11 02:35:08;;;;;;;10.00;4.28;;;17.60;99.90;;;;;;5066082;28;20572;-76
2023/10/11 02:37:59;;;;;;;12.73;4.20;;;17.60;99.90;;;;;;5068135;28;20051;-76
2023/10/11 02:40:46;;;;;;;10.68;4.28;;;17.70;99.90;;;;;;5050068;28;20072;-75
2023/10/11 02:43:33;;;;;;;11.68;5.93;;;17.60;99.90;;;;;;5039810;28;20079;-76
2023/10/11 02:46:23;;;;;;;12.73;5.05;;;17.60;99.90;;;;;;5065726;28;20392;-76
2023/10/11 02:49:18;;;;;;;8.52;4.68;;;17.60;99.90;;;;;;5078163;28;20402;-76
2023/10/11 02:52:07;;;;;;;9.85;5.13;;;17.60;99.90;;;;;;5078033;28;20481;-75
2023/10/11 02:54:54;;;;;;;9.18;4.20;;;17.50;99.90;;;;;;5082026;28;20072;-75
2023/10/11 02:57:40;;;;;;;15.87;5.90;;;17.50;99.90;;;;;;5066968;28;20075;-76
2023/10/11 03:00:26;;;;;;;10.57;4.07;;;17.50;99.90;;;;;;5068652;28;20239;-76
2023/10/11 03:03:15;;;;;;;14.68;4.65;;;17.40;99.90;;;;;;5073742;28;20113;-76
2023/10/11 03:06:01;;;;;;;14.63;4.80;;;17.50;99.90;;;;;;5063065;28;20392;-77
2023/10/11 03:08:47;;;;;;;8.73;4.35;;;17.50;99.90;;;;;;5077624;28;20039;-76
2023/10/11 03:11:34;;;;;;;10.63;3.88;;;17.40;99.90;;;;;;5084725;28;20071;-76
2023/10/11 03:14:20;;;;;;;11.38;4.22;;;17.40;99.90;;;;;;5078089;28;20126;-76
2023/10/11 03:17:06;;;;;;;11.95;4.25;;;17.50;99.90;;;;;;5060708;28;20036;-73
2023/10/11 03:19:52;;;;;;;8.50;4.30;;;17.40;99.90;;;;;;5075345;28;20469;-74
2023/10/11 03:22:38;;;;;;;10.70;4.47;;;17.40;99.90;;;;;;5074238;28;20381;-74
2023/10/11 03:25:27;;;;;;;10.10;4.45;;;17.40;99.90;;;;;;5073772;28;20052;-74
2023/10/11 03:28:15;;;;;;;8.85;4.07;;;17.40;99.90;;;;;;5074068;28;20092;-74
2023/10/11 03:31:01;;;;;;;8.50;4.70;;;17.40;99.90;;;;;;5080871;28;20055;-74
2023/10/11 03:33:47;;;;;;;7.32;4.20;;;17.40;99.90;;;;;;5076979;28;20442;-73
2023/10/11 03:36:43;;;;;;;9.77;4.10;;;17.40;99.90;;;;;;5079377;28;20047;-73
2023/10/11 03:42:17;;;;;;;10.23;4.30;;;17.40;99.90;;;;;;5086279;28;20415;-73
2023/10/11 03:45:04;;;;;;;11.02;4.95;;;17.40;99.90;;;;;;5062860;28;20479;-74
2023/10/11 03:47:52;;;;;;;10.48;4.38;;;17.40;99.90;;;;;;5078456;28;20132;-74
2023/10/11 03:50:47;;;;;;;;;;;17.40;99.90;;;;;;5060908;28;20044;-73
2023/10/11 03:53:33;;;;;;;9.57;3.95;;;17.40;99.90;;;;;;5078737;28;19919;-74
2023/10/11 03:56:19;;;;;;;8.82;4.55;;;17.40;99.90;;;;;;5072879;28;20087;-74
2023/10/11 03:59:06;;;;;;;9.70;4.80;;;17.40;99.90;;;;;;5056290;28;20043;-73
2023/10/11 04:02:00;;;;;;;9.43;4.30;;;17.40;99.90;;;;;;5075153;28;20399;-74
2023/10/11 04:04:49;;;;;;;14.20;5.20;;;17.40;99.90;;;;;;5068282;28;20036;-74
2023/10/11 04:07:36;;;;;;;8.43;4.40;;;17.40;99.90;;;;;;5088496;28;20051;-74
2023/10/11 04:10:38;;;;;;;8.43;4.05;;;17.40;99.90;;;;;;5061138;28;20036;-74
2023/10/11 04:13:27;;;;;;;9.00;4.78;;;17.40;99.90;;;;;;5072437;28;20043;-74
2023/10/11 04:16:14;;;;;;;7.20;4.47;;;17.30;99.90;;;;;;5082887;28;20035;-74
2023/10/11 04:19:02;;;;;;;11.68;4.45;;;17.30;99.90;;;;;;5051562;28;20522;-74
2023/10/11 04:24:38;;;;;;;12.25;4.72;;;17.30;99.90;;;;;;5076176;28;20526;-74
2023/10/11 04:33:21;;;;;;;8.38;4.38;;;17.30;99.90;;;;;;5075544;28;20048;-73
2023/10/11 04:36:07;;;;;;;13.48;4.75;;;17.30;99.90;;;;;;5070695;28;20044;-74
2023/10/11 04:39:01;;;;;;;8.80;4.63;;;17.30;99.90;;;;;;5059392;28;20040;-74
2023/10/11 04:41:51;;;;;;;16.45;5.10;;;17.30;99.90;;;;;;5085167;28;20059;-74
2023/10/11 04:44:47;;;;;;;7.88;4.30;;;17.30;99.90;;;;;;5070304;28;20097;-73
2023/10/11 04:47:50;;;;;;;8.38;4.20;;;17.30;99.90;;;;;;5057040;28;20045;-73
2023/10/11 04:50:43;;;;;;;11.93;4.60;;;17.20;99.90;;;;;;5062696;28;20044;-74
2023/10/11 04:53:33;;;;;;;11.70;4.82;;;17.20;99.90;;;;;;5054004;28;20127;-74
2023/10/11 05:02:32;;;;;;;14.30;5.10;;;17.20;99.90;;;;;;5073974;28;20135;-73
2023/10/11 05:05:21;;;;;;;13.60;4.60;;;17.20;99.90;;;;;;5056978;28;20109;-74
2023/10/11 05:08:20;;;;;;;8.15;4.45;;;17.20;99.90;;;;;;5048092;28;20068;-74
2023/10/11 05:11:18;;;;;;;9.57;4.80;;;17.20;99.90;;;;;;5063559;28;20041;-74
2023/10/11 05:14:26;;;;;;;9.70;5.15;;;17.20;99.90;;;;;;5056872;28;20036;-73
2023/10/11 05:22:52;;;;;;;9.32;4.53;;;17.20;99.90;;;;;;5056526;28;20040;-73
2023/10/11 05:25:45;;;;;;;;;;;17.20;99.90;;;;;;5082021;28;20047;-73
2023/10/11 05:28:45;;;;;;;9.85;4.90;;;17.20;99.90;;;;;;5060760;28;19913;-73
2023/10/11 05:32:19;;;;;;;9.98;4.82;;;17.20;99.90;;;;;;5054185;28;20385;-73
2023/10/11 05:53:29;;;;;;;12.05;4.65;;;17.20;99.90;;;;;;5064116;28;20041;-74
2023/10/11 05:56:22;;;;;;;8.05;4.40;;;17.10;99.90;;;;;;5067190;28;20048;-74
2023/10/11 05:59:11;;;;;;;14.10;4.82;;;17.20;99.90;;;;;;5061014;28;20040;-74
2023/10/11 06:01:57;;;;;;;8.57;4.57;;;17.20;99.90;;;;;;5046968;28;20072;-73
2023/10/11 06:04:43;;;;;;;9.75;4.55;;;17.20;99.90;;;;;;5068907;28;20032;-73
2023/10/11 06:07:37;;;;;;;9.85;4.00;;;17.20;99.90;;;;;;5051308;28;20119;-73
2023/10/11 06:10:29;;;;;;;11.77;4.53;;;17.20;99.90;;;;;;5056478;28;20044;-73
2023/10/11 06:13:15;;;;;;;11.70;4.95;;;17.20;99.90;;;;;;5064465;28;20044;-73
2023/10/11 06:16:02;;;;;;;12.88;4.93;;;17.20;99.90;;;;;;5050373;28;20052;-73
2023/10/11 06:19:15;;;;;;;11.13;4.95;;;17.30;99.90;;;;;;5062188;28;20119;-72
2023/10/11 06:22:10;;;;;;;11.23;4.38;;;17.30;99.90;;;;;;5047924;28;20533;-73
2023/10/11 06:24:58;;;;;;;11.18;4.20;;;17.30;99.90;;;;;;5041155;28;20075;-73
2023/10/11 06:30:49;;;;;;;10.05;3.92;;;17.30;99.90;;;;;;5063011;28;20040;-73
2023/10/11 06:33:39;;;;;;;9.70;4.22;;;17.30;99.90;;;;;;5066287;28;20123;-73
2023/10/11 06:36:31;;;;;;;13.30;4.38;;;17.30;99.90;;;;;;5056860;28;20083;-73
2023/10/11 06:39:34;;;;;;;9.63;4.63;;;17.30;99.90;;;;;;5067111;28;20044;-73
2023/10/11 06:45:16;;;;;;;9.70;4.72;;;17.30;99.90;;;;;;5059080;28;20044;-73
2023/10/11 06:48:10;;;;;;;13.32;4.60;;;17.30;99.90;;;;;;5090298;28;20043;-73
2023/10/11 06:50:56;;;;;;;12.85;5.10;;;17.30;99.90;;;;;;5068148;28;20036;-73
2023/10/11 06:53:45;;;;;;;15.05;4.63;;;17.30;99.90;;;;;;5091911;28;20043;-73
2023/10/11 06:56:32;;;;;;;11.55;4.63;;;17.40;99.90;;;;;;5083497;28;20047;-73
2023/10/11 06:59:19;;;;;;;9.18;4.50;;;17.30;99.90;;;;;;5087308;28;20054;-73
2023/10/11 07:02:17;;;;;;;12.27;4.78;;;17.30;99.90;;;;;;5067062;28;20044;-73
2023/10/11 07:05:08;;;;;;;8.10;4.40;;;17.40;99.90;;;;;;5073126;28;20039;-73
2023/10/11 07:07:54;;;;;;;10.52;5.25;;;17.30;99.90;;;;;;5075922;28;20027;-73
2023/10/11 07:10:45;;;;;;;14.95;4.75;;;17.40;99.90;;;;;;5074946;28;20044;-73
2023/10/11 07:13:49;;;;;;;9.38;4.57;;;17.30;99.90;;;;;;5067511;28;20118;-73
2023/10/11 07:16:37;;;;;;;8.75;4.32;;;17.30;99.90;;;;;;5069271;28;20051;-73
2023/10/11 07:19:23;;;;;;;13.07;4.57;;;17.40;99.90;;;;;;5087989;28;20048;-73
2023/10/11 07:22:14;;;;;;;11.40;4.93;;;17.40;99.90;;;;;;5078332;28;20039;-72
2023/10/11 07:25:18;;;;;;;9.35;3.95;;;17.40;99.90;;;;;;5076942;28;20476;-73
2023/10/11 07:28:06;;;;;;;7.68;4.13;;;17.50;99.90;;;;;;5075039;28;20056;-73
2023/10/11 07:30:51;;;;;;;11.02;4.50;;;17.60;99.90;;;;;;5091970;28;20044;-73
2023/10/11 07:33:37;;;;;;;13.05;4.68;;;17.60;99.90;;;;;;5053484;28;20048;-73
2023/10/11 07:36:25;;;;;;;12.65;4.88;;;17.60;99.90;;;;;;5065828;28;20101;-73
2023/10/11 07:39:33;;;;;;;10.88;4.32;;;17.60;99.90;;;;;;5076915;28;20411;-73
2023/10/11 07:42:25;;;;;;;8.52;3.60;;;17.70;99.90;;;;;;5081610;28;20467;-73
2023/10/11 07:45:14;;;;;;;10.80;4.75;;;17.70;99.90;;;;;;5061586;28;20059;-73
2023/10/11 07:48:00;;;;;;;15.63;4.50;;;17.70;99.90;;;;;;5057332;28;20052;-74
2023/10/11 07:50:46;;;;;;;10.15;4.40;;;17.70;99.90;;;;;;5067212;28;20040;-74
2023/10/11 07:53:32;;;;;;;10.85;4.28;;;17.70;99.90;;;;;;5044839;28;20125;-74
2023/10/11 07:56:20;;;;;;;13.20;4.70;;;17.80;99.90;;;;;;5066659;28;20093;-74
2023/10/11 07:59:09;;;;;;;8.60;4.15;;;17.80;99.90;;;;;;5084039;28;20079;-74
2023/10/11 08:02:08;;;;;;;10.27;4.55;;;17.80;99.90;;;;;;5044698;28;20052;-74
2023/10/11 08:04:54;;;;;;;10.15;4.22;;;17.80;99.90;;;;;;5070562;28;20037;-74
2023/10/11 08:07:40;;;;;;;13.85;4.32;;;17.80;99.90;;;;;;5057698;28;20078;-74
2023/10/11 08:10:29;;;;;;;8.73;4.50;;;17.90;99.90;;;;;;5063903;28;20041;-74
2023/10/11 08:13:23;;;;;;;13.05;5.13;;;17.90;99.90;;;;;;5038242;28;20134;-74
2023/10/11 08:16:13;;;;;;;13.50;4.60;;;18.00;99.90;;;;;;5039834;28;20052;-74
2023/10/11 08:18:59;;;;;;;10.48;4.97;;;18.10;99.90;;;;;;5055391;28;20106;-74
2023/10/11 08:21:54;;;;;;;16.45;4.72;;;18.10;99.90;;;;;;5076933;28;20362;-74
2023/10/11 08:24:49;;;;;;;11.15;4.10;;;18.20;99.90;;;;;;5056628;28;20075;-73
2023/10/11 08:27:35;;;;;;;7.30;4.18;;;18.20;99.90;;;;;;5046362;28;20033;-74
2023/10/11 08:30:23;;;;;;;12.57;5.10;;;18.30;99.90;;;;;;5065462;28;20380;-74
2023/10/11 08:33:09;;;;;;;9.27;4.38;;;18.40;99.90;;;;;;5049668;28;20468;-74
2023/10/11 08:35:56;;;;;;;11.32;4.03;;;18.50;99.90;;;;;;5048953;28;20060;-73
2023/10/11 08:38:44;;;;;;;12.10;4.47;;;18.50;99.90;;;;;;5068258;28;20042;-73
2023/10/11 08:41:30;;;;;;;8.90;4.22;;;18.60;99.90;;;;;;5065880;28;20045;-73
2023/10/11 08:44:20;;;;;;;8.40;4.45;;;18.60;99.90;;;;;;5055295;28;20060;-73
2023/10/11 08:47:06;;;;;;;9.73;4.63;;;18.70;99.90;;;;;;5059049;28;20127;-74
2023/10/11 08:49:53;;;;;;;8.23;3.90;;;18.80;99.90;;;;;;5054619;28;20036;-74
2023/10/11 08:52:40;;;;;;;13.52;4.53;;;18.80;99.90;;;;;;5056361;28;20052;-73
2023/10/11 08:55:26;;;;;;;9.30;3.75;;;18.90;99.90;;;;;;5052788;28;20048;-73
2023/10/11 08:58:23;;;;;;;9.60;3.83;;;18.90;99.90;;;;;;5066348;28;20048;-74
2023/10/11 09:01:09;;;;;;;10.35;4.00;;;18.90;99.90;;;;;;5067076;28;20423;-74
2023/10/11 09:04:11;;;;;;;10.65;4.35;;;19.00;99.90;;;;;;5037754;28;20062;-74
2023/10/11 09:07:00;;;;;;;10.57;4.93;;;19.10;99.90;;;;;;5068812;28;20067;-73
2023/10/11 09:09:50;;;;;;;13.23;4.47;;;19.20;99.90;;;;;;5045743;28;20044;-74
2023/10/11 09:12:43;;;;;;;12.98;4.00;;;19.30;99.90;;;;;;5072645;28;20411;-74
2023/10/11 09:15:43;;;;;;;12.88;4.20;;;19.40;99.90;;;;;;5041403;28;20471;-74
2023/10/11 09:18:34;;;;;;;12.48;4.30;;;19.40;99.90;;;;;;5040297;28;20075;-74
2023/10/11 09:21:20;;;;;;;10.40;3.30;;;19.40;99.90;;;;;;5067222;28;20138;-74
2023/10/11 09:24:23;;;;;;;13.77;4.63;;;19.50;99.90;;;;;;5073219;28;20535;-74
2023/10/11 09:27:18;;;;;;;11.50;4.03;;;19.50;99.90;;;;;;5055809;28;20481;-74
2023/10/11 09:30:19;;;;;;;13.38;4.00;;;19.50;99.90;;;;;;5073978;28;20037;-74
2023/10/11 09:33:16;;;;;;;11.85;4.07;;;19.60;99.90;;;;;;5034881;28;20032;-74
2023/10/11 09:36:06;;;;;;;11.90;3.97;;;19.70;99.90;;;;;;5048741;28;20074;-73
2023/10/11 09:38:55;;;;;;;9.63;4.03;;;19.70;99.90;;;;;;5056512;28;20086;-73
2023/10/11 09:41:41;;;;;;;10.07;4.28;;;19.80;99.90;;;;;;5068220;28;20047;-73
2023/10/11 09:44:28;;;;;;;9.70;3.72;;;19.80;99.90;;;;;;5067255;28;20033;-73
2023/10/11 09:47:17;;;;;;;11.50;4.07;;;19.90;99.90;;;;;;5044854;28;20123;-73
2023/10/11 09:50:05;;;;;;;11.43;3.60;;;19.90;99.90;;;;;;5058518;28;20449;-73
2023/10/11 09:52:51;;;;;;;10.40;3.85;;;19.90;99.90;;;;;;5069688;28;20040;-73
2023/10/11 09:55:44;;;;;;;10.55;4.07;;;19.90;99.90;;;;;;5070910;28;20415;-73
2023/10/11 09:58:41;;;;;;;12.10;3.95;;;19.90;99.90;;;;;;5069547;28;20029;-73
2023/10/11 10:01:32;;;;;;;8.60;3.65;;;20.00;99.90;;;;;;5033050;28;20079;-73
2023/10/11 10:04:20;;;;;;;12.02;3.80;;;20.00;99.90;;;;;;5069999;28;20031;-74
2023/10/11 10:07:12;;;;;;;;;;;20.10;99.90;;;;;;5051115;28;20381;-73
2023/10/11 10:10:02;;;;;;;9.93;3.95;;;20.10;99.90;;;;;;5059126;28;19920;-73
2023/10/11 10:13:09;;;;;;;10.20;3.53;;;20.10;99.90;;;;;;5037002;28;20082;-73
2023/10/11 10:15:57;;;;;;;11.50;4.00;;;20.20;99.90;;;;;;5053542;28;20511;-73
2023/10/11 10:18:45;;;;;;;9.88;3.65;;;20.30;99.90;;;;;;5073106;28;20465;-73
2023/10/11 10:22:10;;;;;;;9.65;3.60;;;20.40;99.90;;;;;;5066919;28;20135;-73
2023/10/11 10:24:56;;;;;;;10.10;4.07;;;20.40;99.90;;;;;;5065407;28;20040;-74
2023/10/11 10:27:45;;;;;;;9.15;3.83;;;20.50;99.90;;;;;;5070197;28;20400;-73
2023/10/11 10:31:01;;;;;;;9.38;3.70;;;20.50;99.90;;;;;;5061431;28;20530;-74
2023/10/11 10:34:04;;;;;;;9.07;4.10;;;20.50;99.90;;;;;;5069053;28;20075;-74
2023/10/11 10:36:50;;;;;;;8.95;3.97;;;20.70;99.90;;;;;;5063287;28;20115;-74
2023/10/11 10:39:46;;;;;;;13.75;3.95;;;20.80;99.90;;;;;;5066248;28;20072;-76
2023/10/11 10:42:35;;;;;;;9.75;4.47;;;20.90;99.80;;;;;;5056649;28;20076;-74
2023/10/11 10:45:25;;;;;;;8.48;3.95;;;21.00;99.90;;;;;;5066824;28;20043;-74
2023/10/11 10:48:24;;;;;;;8.52;4.30;;;21.30;99.90;;;;;;5074255;28;20359;-74
2023/10/11 10:51:11;;;;;;;7.47;3.55;;;21.60;99.90;;;;;;5086418;28;20069;-75
2023/10/11 10:53:57;;;;;;;7.03;3.40;;;21.60;99.70;;;;;;5079834;28;20090;-75
2023/10/11 10:56:47;;;;;;;7.55;3.38;;;21.70;99.40;;;;;;5075977;28;20417;-74
2023/10/11 10:59:33;;;;;;;10.88;3.95;;;21.70;99.10;;;;;;5082749;28;20035;-75
2023/10/11 11:02:20;;;;;;;12.73;4.20;;;21.80;98.60;;;;;;5070361;28;20071;-74
2023/10/11 11:05:15;;;;;;;10.35;3.88;;;22.00;98.60;;;;;;5081938;28;20043;-75
2023/10/11 11:08:15;;;;;;;11.68;3.45;;;22.00;98.40;;;;;;5062634;28;20577;-75
2023/10/11 11:11:19;;;;;;;12.07;4.50;;;22.10;98.00;;;;;;5091605;28;20507;-74
2023/10/11 11:14:15;;;;;;;10.63;3.65;;;22.20;97.60;;;;;;5087121;28;20040;-74
2023/10/11 11:17:10;;;;;;;17.60;3.88;;;22.20;97.40;;;;;;5080760;28;20031;-77
2023/10/11 11:23:06;;;;;;;9.27;3.65;;;22.40;97.90;;;;;;5108345;28;20109;-78
2023/10/11 11:25:52;;;;;;;7.90;3.45;;;22.60;97.40;;;;;;5077352;28;20035;-78
2023/10/11 11:28:43;;;;;;;9.18;3.85;;;22.60;97.10;;;;;;5066186;28;20036;-77
2023/10/11 11:31:38;;;;;;;9.52;3.85;;;22.60;96.40;;;;;;5054373;28;20375;-77
2023/10/11 11:34:28;;;;;;;9.13;3.65;;;22.80;96.90;;;;;;5087357;28;20060;-78
2023/10/11 11:37:20;;;;;;;10.25;3.47;;;22.90;96.90;;;;;;5081020;28;20090;-78
2023/10/11 11:40:24;;;;;;;11.18;3.72;;;23.00;96.50;;;;;;5074538;28;20032;-78
2023/10/11 11:43:11;;;;;;;10.75;3.47;;;23.10;96.70;;;;;;5099340;28;20131;-77
2023/10/11 11:46:01;;;;;;;10.03;3.90;;;23.00;95.60;;;;;;5069666;28;20051;-78
2023/10/11 11:48:50;;;;;;;7.85;3.35;;;23.10;96.00;;;;;;5080441;28;20044;-78
2023/10/11 11:51:37;;;;;;;6.63;3.47;;;23.20;96.10;;;;;;5078008;28;20354;-78
2023/10/11 11:54:33;;;;;;;8.52;2.97;;;23.40;96.20;;;;;;5096456;28;20044;-78
2023/10/11 11:57:29;;;;;;;9.50;3.63;;;23.30;95.50;;;;;;5089127;28;20035;-76
2023/10/11 12:03:11;;;;;;;15.70;3.95;;;23.30;95.40;;;;;;5086831;28;20036;-76
2023/10/11 12:05:57;;;;;;;12.20;3.80;;;23.20;94.80;;;;;;5064387;28;20230;-77
2023/10/11 12:08:44;;;;;;;13.80;3.83;;;23.20;95.10;;;;;;5058634;28;20077;-78
2023/10/11 12:11:30;;;;;;;;;;;23.20;95.30;;;;;;5075837;28;20056;-77
2023/10/11 12:14:16;;;;;;;13.90;4.10;;;23.40;95.50;;;;;;5075198;28;19922;-77
2023/10/11 12:17:13;;;;;;;17.27;3.80;;;23.60;95.50;;;;;;5090598;28;20040;-77
2023/10/11 12:19:59;;;;;;;9.90;3.63;;;23.70;95.60;;;;;;5077273;28;20100;-77
2023/10/11 12:22:45;;;;;;;9.68;3.45;;;23.60;95.20;;;;;;5059945;28;20047;-77
2023/10/11 12:25:33;;;;;;;9.00;3.72;;;23.60;95.50;;;;;;5082896;28;20043;-77
2023/10/11 12:28:22;;;;;;;11.35;3.80;;;23.70;95.50;;;;;;5095813;28;20510;-77
2023/10/11 12:31:08;;;;;;;10.63;4.07;;;23.80;94.90;;;;;;5074142;28;20040;-78
2023/10/11 12:33:54;;;;;;;14.75;3.78;;;23.90;94.40;;;;;;5084911;28;20040;-77
2023/10/11 12:36:42;;;;;;;13.18;4.13;;;24.30;94.80;;;;;;5067763;28;20134;-77
2023/10/11 12:39:33;;;;;;;7.75;3.08;;;24.30;93.70;;;;;;5066583;28;20093;-78
2023/10/11 12:42:18;;;;;;;10.93;3.97;;;24.20;93.70;;;;;;5062172;28;20491;-77
2023/10/11 12:45:08;;;;;;;8.23;3.13;;;24.30;93.90;;;;;;5063027;28;20050;-77
2023/10/11 12:47:55;;;;;;;7.95;3.50;;;24.50;93.60;;;;;;5084669;28;20044;-77
2023/10/11 12:50:41;;;;;;;10.43;3.20;;;24.40;93.50;;;;;;5068422;28;20039;-77
2023/10/11 12:53:29;;;;;;;11.23;3.58;;;24.30;93.70;;;;;;5078091;28;20059;-77
2023/10/11 12:56:15;;;;;;;11.48;3.22;;;24.20;93.60;;;;;;5074688;28;20039;-77
2023/10/11 12:59:01;;;;;;;10.30;3.30;;;24.30;93.30;;;;;;5078290;28;20048;-77
2023/10/11 13:01:52;;;;;;;11.88;3.78;;;24.30;93.90;;;;;;5063362;28;20202;-77
2023/10/11 13:04:42;;;;;;;11.50;3.63;;;24.40;93.80;;;;;;5084418;28;20035;-77
2023/10/11 13:07:28;;;;;;;10.70;3.28;;;24.30;94.20;;;;;;5082820;28;20456;-77
2023/10/11 13:10:15;;;;;;;10.52;4.03;;;24.30;93.90;;;;;;5095647;28;20032;-77
2023/10/11 13:13:08;;;;;;;12.55;3.53;;;24.50;94.10;;;;;;5089171;28;20112;-77
2023/10/11 13:16:00;;;;;;;12.82;3.60;;;24.60;94.30;;;;;;5069084;28;20036;-77
2023/10/11 13:18:46;;;;;;;8.48;3.10;;;24.60;94.20;;;;;;5104677;28;20592;-77
2023/10/11 13:21:33;;;;;;;12.70;3.67;;;24.20;94.20;;;;;;5094262;28;20062;-76
2023/10/11 13:24:22;;;;;;;14.13;3.33;;;23.90;94.90;;;;;;5078374;28;20040;-76
2023/10/11 13:27:09;;;;;;;12.55;3.33;;;23.80;95.10;;;;;;5061841;28;20039;-76
2023/10/11 13:30:01;;;;;;;13.18;3.60;;;23.60;95.30;;;;;;5077571;28;20047;-76
2023/10/11 13:32:48;;;;;;;8.65;3.33;;;23.50;95.30;;;;;;5078929;28;20067;-76
2023/10/11 13:35:35;;;;;;;11.95;3.78;;;23.40;95.60;;;;;;5074638;28;20036;-77
2023/10/11 13:38:21;;;;;;;14.52;4.15;;;23.20;96.00;;;;;;5081598;28;20044;-77
2023/10/11 13:41:12;;;;;;;14.27;3.95;;;23.10;96.10;;;;;;5094477;28;20047;-77
2023/10/11 13:43:58;;;;;;;14.05;4.00;;;23.20;96.40;;;;;;5083384;28;20345;-77
2023/10/11 13:46:44;;;;;;;10.18;4.50;;;23.10;96.30;;;;;;5048788;28;20045;-77
2023/10/11 13:49:33;;;;;;;15.75;3.83;;;23.10;96.80;;;;;;5047716;28;20048;-77
2023/10/11 13:52:20;;;;;;;11.38;4.00;;;23.10;97.20;;;;;;5052188;28;20037;-77
2023/10/11 13:55:11;;;;;;;14.65;3.85;;;23.00;97.00;;;;;;5044619;28;20507;-77
2023/10/11 13:57:57;;;;;;;15.40;3.65;;;22.90;97.10;;;;;;5052593;28;20047;-77
2023/10/11 14:06:30;;;;;;;12.02;3.70;;;22.80;97.60;;;;;;5055951;28;20040;-77
2023/10/11 14:09:16;;;;;;;12.07;3.35;;;22.90;97.90;;;;;;5036342;28;20032;-77
2023/10/11 14:12:11;;;;;;;11.93;3.95;;;22.90;97.90;;;;;;5059981;28;20040;-78
2023/10/11 14:14:57;;;;;;;12.02;3.30;;;23.00;98.10;;;;;;5056800;28;20361;-77
2023/10/11 14:17:49;;;;;;;9.95;3.00;;;23.00;97.80;;;;;;5069544;28;20032;-77
2023/10/11 14:20:35;;;;;;;11.15;3.40;;;22.90;97.90;;;;;;5061388;28;20123;-74
2023/10/11 14:23:21;;;;;;;11.57;3.90;;;22.90;98.00;;;;;;5057133;28;20036;-77
2023/10/11 14:26:07;;;;;;;14.82;3.50;;;22.80;98.60;;;;;;5060232;28;20101;-74
2023/10/11 14:28:53;;;;;;;13.57;3.70;;;22.80;98.20;;;;;;5059670;28;20059;-74
2023/10/11 14:31:42;;;;;;;9.75;3.40;;;22.90;98.60;;;;;;5032049;28;20102;-75
2023/10/11 14:34:30;;;;;;;15.57;4.38;;;22.80;98.60;;;;;;5046176;28;20041;-74
2023/10/11 14:37:19;;;;;;;12.48;3.63;;;22.80;98.80;;;;;;5069501;28;20159;-74
2023/10/11 14:40:14;;;;;;;11.65;3.63;;;22.70;98.80;;;;;;5069833;28;20044;-74
2023/10/11 14:43:00;;;;;;;14.57;3.60;;;22.70;98.80;;;;;;5070714;28;20448;-73
2023/10/11 14:45:47;;;;;;;13.75;4.05;;;22.50;99.00;;;;;;5057208;28;20076;-73
2023/10/11 14:48:34;;;;;;;;;;;22.50;99.00;;;;;;5076416;28;20040;-73
2023/10/11 14:51:23;;;;;;;15.43;3.83;;;22.40;99.20;;;;;;5093243;28;19912;-73
2023/10/11 14:54:12;;;;;;;11.57;3.38;;;22.40;99.20;;;;;;5071753;28;20050;-74
2023/10/11 14:57:00;;;;;;;12.05;3.88;;;22.30;99.50;;;;;;5097147;28;20078;-74
2023/10/11 14:59:46;;;;;;;10.88;3.78;;;22.20;99.70;;;;;;5082548;28;20419;-74
2023/10/11 15:02:32;;;;;;;17.95;3.88;;;22.10;99.80;;;;;;5071355;28;20040;-74
2023/10/11 15:05:19;;;;;;;10.93;3.65;;;22.10;99.60;;;;;;5096529;28;20042;-73
2023/10/11 15:08:05;;;;;;;13.20;3.70;;;22.00;99.90;;;;;;5086686;28;20598;-73
2023/10/11 15:10:52;;;;;;;13.60;3.63;;;21.90;99.90;;;;;;5078137;28;20525;-73
2023/10/11 15:13:41;;;;;;;17.38;4.38;;;21.80;99.90;;;;;;5083108;28;20058;-74
2023/10/11 15:16:27;;;;;;;8.88;3.22;;;21.70;99.90;;;;;;5077025;28;20678;-74
2023/10/11 15:19:13;;;;;;;13.75;4.20;;;21.70;99.90;;;;;;5065878;28;20096;-74
2023/10/11 15:21:59;;;;;;;15.38;4.28;;;21.60;99.90;;;;;;5093994;28;20484;-74
2023/10/11 15:24:45;;;;;;;17.73;4.00;;;21.50;99.90;;;;;;5089971;28;20063;-74
2023/10/11 15:27:31;;;;;;;12.20;3.78;;;21.40;99.90;;;;;;5101352;28;20122;-74
2023/10/11 15:30:17;;;;;;;13.10;3.50;;;21.40;99.90;;;;;;5076701;28;20189;-74
2023/10/11 15:33:03;;;;;;;13.80;4.10;;;21.40;99.90;;;;;;5085630;28;20102;-74
2023/10/11 15:35:56;;;;;;;10.65;4.38;;;21.30;99.90;;;;;;5079493;28;20473;-75
2023/10/11 15:38:44;;;;;;;12.63;3.75;;;21.20;99.90;;;;;;5081458;28;20035;-73